createdAt,value
2023-05-05T00:00:27.151Z,614.00
2023-05-05T00:01:27.170Z,616.00
2023-05-05T00:02:27.183Z,615.00
2023-05-05T00:03:27.216Z,615.00
2023-05-05T00:04:27.181Z,616.00
2023-05-05T00:05:27.196Z,609.00
2023-05-05T00:06:27.213Z,610.00
2023-05-05T00:07:27.206Z,613.00
2023-05-05T00:08:27.229Z,608.00
2023-05-05T00:09:27.247Z,619.00
2023-05-05T00:10:27.244Z,613.00
2023-05-05T00:11:27.260Z,610.00
2023-05-05T00:12:27.263Z,614.00
2023-05-05T00:13:27.266Z,614.00
2023-05-05T00:14:27.286Z,604.00
2023-05-05T00:15:27.311Z,609.00
2023-05-05T00:16:27.379Z,607.00
2023-05-05T00:17:27.401Z,609.00
2023-05-05T00:18:27.324Z,603.00
2023-05-05T00:19:27.343Z,613.00
2023-05-05T00:20:27.354Z,611.00
2023-05-05T00:21:27.357Z,607.00
2023-05-05T00:22:27.384Z,600.00
2023-05-05T00:23:27.375Z,602.00
2023-05-05T00:24:27.426Z,603.00
2023-05-05T00:25:27.429Z,607.00
2023-05-05T00:26:27.453Z,603.00
2023-05-05T00:27:27.481Z,602.00
2023-05-05T00:28:27.493Z,608.00
2023-05-05T00:29:27.487Z,608.00
2023-05-05T00:30:27.580Z,596.00
2023-05-05T00:31:27.586Z,603.00
2023-05-05T00:32:27.583Z,603.00
2023-05-05T00:33:27.563Z,601.00
2023-05-05T00:34:27.603Z,602.00
2023-05-05T00:35:27.610Z,604.00
2023-05-05T00:36:27.630Z,598.00
2023-05-05T00:37:27.643Z,603.00
2023-05-05T00:38:27.651Z,599.00
2023-05-05T00:39:27.677Z,601.00
2023-05-05T00:40:27.726Z,604.00
2023-05-05T00:41:27.738Z,601.00
2023-05-05T00:42:27.732Z,597.00
2023-05-05T00:43:27.735Z,604.00
2023-05-05T00:44:27.797Z,592.00
2023-05-05T00:45:27.811Z,588.00
2023-05-05T00:46:27.954Z,595.00
2023-05-05T00:47:27.901Z,598.00
2023-05-05T00:48:27.895Z,599.00
2023-05-05T00:49:27.926Z,597.00
2023-05-05T00:50:27.920Z,600.00
2023-05-05T00:51:27.945Z,596.00
2023-05-05T00:52:27.952Z,600.00
2023-05-05T00:53:28.030Z,597.00
2023-05-05T00:54:28.009Z,596.00
2023-05-05T00:55:28.055Z,596.00
2023-05-05T00:56:28.088Z,596.00
2023-05-05T00:57:28.099Z,586.00
2023-05-05T00:58:28.098Z,594.00
2023-05-05T00:59:28.142Z,591.00
2023-05-05T01:00:28.187Z,592.00
2023-05-05T01:01:28.221Z,590.00
2023-05-05T01:02:28.249Z,591.00
2023-05-05T01:03:28.281Z,590.00
2023-05-05T01:04:28.315Z,591.00
2023-05-05T01:05:28.244Z,596.00
2023-05-05T01:06:28.284Z,592.00
2023-05-05T01:07:28.291Z,594.00
2023-05-05T01:08:28.293Z,597.00
2023-05-05T01:09:28.346Z,591.00
2023-05-05T01:10:28.361Z,590.00
2023-05-05T01:11:28.405Z,590.00
2023-05-05T01:12:28.396Z,593.00
2023-05-05T01:13:28.444Z,585.00
2023-05-05T01:14:28.454Z,588.00
2023-05-05T01:15:28.480Z,592.00
2023-05-05T01:16:28.501Z,592.00
2023-05-05T01:17:28.535Z,590.00
2023-05-05T01:18:28.500Z,587.00
2023-05-05T01:19:28.545Z,589.00
2023-05-05T01:20:28.560Z,590.00
2023-05-05T01:21:28.635Z,588.00
2023-05-05T01:22:28.623Z,585.00
2023-05-05T01:23:28.644Z,592.00
2023-05-05T01:24:28.645Z,584.00
2023-05-05T01:25:28.682Z,590.00
2023-05-05T01:26:28.705Z,582.00
2023-05-05T01:27:28.724Z,593.00
2023-05-05T01:28:28.753Z,588.00
2023-05-05T01:29:28.761Z,580.00
2023-05-05T01:30:28.801Z,591.00
2023-05-05T01:31:28.861Z,582.00
2023-05-05T01:32:28.886Z,584.00
2023-05-05T01:33:28.883Z,588.00
2023-05-05T01:34:28.902Z,583.00
2023-05-05T01:35:28.929Z,589.00
2023-05-05T01:36:28.927Z,584.00
2023-05-05T01:37:28.988Z,582.00
2023-05-05T01:38:29.031Z,578.00
2023-05-05T01:39:29.047Z,584.00
2023-05-05T01:40:29.044Z,578.00
2023-05-05T01:41:29.098Z,582.00
2023-05-05T01:42:29.120Z,582.00
2023-05-05T01:43:29.143Z,580.00
2023-05-05T01:44:29.172Z,578.00
2023-05-05T01:45:29.209Z,576.00
2023-05-05T01:46:29.210Z,583.00
2023-05-05T01:47:29.271Z,578.00
2023-05-05T01:48:29.281Z,577.00
2023-05-05T01:49:29.290Z,579.00
2023-05-05T01:50:29.378Z,577.00
2023-05-05T01:51:29.355Z,582.00
2023-05-05T01:52:29.384Z,574.00
2023-05-05T01:53:29.399Z,583.00
2023-05-05T01:54:29.452Z,577.00
2023-05-05T01:55:29.454Z,583.00
2023-05-05T01:56:29.489Z,576.00
2023-05-05T01:57:29.519Z,575.00
2023-05-05T01:58:29.521Z,578.00
2023-05-05T01:59:29.589Z,577.00
2023-05-05T02:00:29.621Z,579.00
2023-05-05T02:01:29.684Z,581.00
2023-05-05T02:02:29.694Z,580.00
2023-05-05T02:03:29.715Z,571.00
2023-05-05T02:04:29.719Z,574.00
2023-05-05T02:05:29.744Z,578.00
2023-05-05T02:06:29.782Z,577.00
2023-05-05T02:07:29.819Z,578.00
2023-05-05T02:08:29.821Z,571.00
2023-05-05T02:09:29.878Z,573.00
2023-05-05T02:10:29.903Z,574.00
2023-05-05T02:11:29.918Z,570.00
2023-05-05T02:12:30.079Z,576.00
2023-05-05T02:13:29.975Z,573.00
2023-05-05T02:14:30.031Z,570.00
2023-05-05T02:15:30.094Z,581.00
2023-05-05T02:16:30.076Z,577.00
2023-05-05T02:17:30.117Z,573.00
2023-05-05T02:18:30.101Z,572.00
2023-05-05T02:19:30.162Z,574.00
2023-05-05T02:20:30.171Z,570.00
2023-05-05T02:21:30.221Z,575.00
2023-05-05T02:22:30.237Z,569.00
2023-05-05T02:23:30.242Z,570.00
2023-05-05T02:24:30.291Z,571.00
2023-05-05T02:25:30.300Z,569.00
2023-05-05T02:26:30.333Z,567.00
2023-05-05T02:27:30.345Z,570.00
2023-05-05T02:28:30.392Z,567.00
2023-05-05T02:29:30.416Z,576.00
2023-05-05T02:30:30.442Z,561.00
2023-05-05T02:31:30.519Z,571.00
2023-05-05T02:32:30.546Z,572.00
2023-05-05T02:33:30.499Z,567.00
2023-05-05T02:34:30.537Z,569.00
2023-05-05T02:35:30.549Z,560.00
2023-05-05T02:36:30.588Z,562.00
2023-05-05T02:37:30.642Z,565.00
2023-05-05T02:38:30.657Z,568.00
2023-05-05T02:39:30.692Z,564.00
2023-05-05T02:40:30.702Z,566.00
2023-05-05T02:41:30.773Z,571.00
2023-05-05T02:42:30.757Z,568.00
2023-05-05T02:43:30.785Z,563.00
2023-05-05T02:44:30.810Z,568.00
2023-05-05T02:45:30.853Z,568.00
2023-05-05T02:46:30.967Z,564.00
2023-05-05T02:47:30.910Z,567.00
2023-05-05T02:48:30.925Z,564.00
2023-05-05T02:49:30.981Z,565.00
2023-05-05T02:50:30.974Z,566.00
2023-05-05T02:51:31.026Z,565.00
2023-05-05T02:52:31.026Z,564.00
2023-05-05T02:53:31.028Z,557.00
2023-05-05T02:54:31.078Z,563.00
2023-05-05T02:55:31.078Z,560.00
2023-05-05T02:56:31.129Z,564.00
2023-05-05T02:57:31.163Z,566.00
2023-05-05T02:58:31.179Z,565.00
2023-05-05T02:59:31.261Z,565.00
2023-05-05T03:00:31.252Z,560.00
2023-05-05T03:01:31.329Z,562.00
2023-05-05T03:02:31.344Z,558.00
2023-05-05T03:03:31.396Z,560.00
2023-05-05T03:04:31.335Z,561.00
2023-05-05T03:05:31.395Z,557.00
2023-05-05T03:06:31.436Z,559.00
2023-05-05T03:07:31.403Z,559.00
2023-05-05T03:08:31.448Z,559.00
2023-05-05T03:09:31.476Z,554.00
2023-05-05T03:10:31.536Z,559.00
2023-05-05T03:11:31.523Z,555.00
2023-05-05T03:12:31.561Z,563.00
2023-05-05T03:13:31.584Z,556.00
2023-05-05T03:14:33.421Z,556.00
2023-05-05T03:15:31.634Z,557.00
2023-05-05T03:16:31.681Z,556.00
2023-05-05T03:17:31.700Z,558.00
2023-05-05T03:18:31.698Z,549.00
2023-05-05T03:19:31.721Z,552.00
2023-05-05T03:20:31.753Z,550.00
2023-05-05T03:21:31.791Z,553.00
2023-05-05T03:22:31.784Z,554.00
2023-05-05T03:23:31.825Z,556.00
2023-05-05T03:24:31.876Z,552.00
2023-05-05T03:25:31.887Z,559.00
2023-05-05T03:26:31.893Z,554.00
2023-05-05T03:27:31.914Z,557.00
2023-05-05T03:28:31.964Z,554.00
2023-05-05T03:29:31.990Z,548.00
2023-05-05T03:30:32.013Z,553.00
2023-05-05T03:31:32.075Z,553.00
2023-05-05T03:32:32.078Z,548.00
2023-05-05T03:33:32.045Z,552.00
2023-05-05T03:34:32.107Z,552.00
2023-05-05T03:35:32.222Z,554.00
2023-05-05T03:36:32.233Z,550.00
2023-05-05T03:37:32.236Z,554.00
2023-05-05T03:38:32.227Z,547.00
2023-05-05T03:39:32.216Z,552.00
2023-05-05T03:40:40.735Z,548.00
2023-05-05T03:41:33.253Z,548.00
2023-05-05T03:42:32.253Z,548.00
2023-05-05T03:43:32.232Z,549.00
2023-05-05T03:44:32.266Z,548.00
2023-05-05T03:45:32.390Z,546.00
2023-05-05T03:46:32.226Z,551.00
2023-05-05T03:47:32.255Z,548.00
2023-05-05T03:48:32.319Z,544.00
2023-05-05T03:49:32.176Z,556.00
2023-05-05T03:50:32.153Z,545.00
2023-05-05T03:51:32.187Z,551.00
2023-05-05T03:52:32.186Z,550.00
2023-05-05T03:53:32.175Z,549.00
2023-05-05T03:54:32.138Z,546.00
2023-05-05T03:55:32.141Z,551.00
2023-05-05T03:56:32.138Z,549.00
2023-05-05T03:57:32.181Z,544.00
2023-05-05T03:58:32.207Z,546.00
2023-05-05T03:59:32.208Z,551.00
2023-05-05T04:00:32.252Z,545.00
2023-05-05T04:01:32.283Z,539.00
2023-05-05T04:02:32.401Z,543.00
2023-05-05T04:03:32.483Z,541.00
2023-05-05T04:04:32.517Z,546.00
2023-05-05T04:05:32.489Z,539.00
2023-05-05T04:06:32.392Z,545.00
2023-05-05T04:07:32.454Z,533.00
2023-05-05T04:08:32.442Z,537.00
2023-05-05T04:09:32.478Z,539.00
2023-05-05T04:10:32.522Z,547.00
2023-05-05T04:11:32.516Z,545.00
2023-05-05T04:12:32.580Z,540.00
2023-05-05T04:13:32.570Z,538.00
2023-05-05T04:14:32.582Z,540.00
2023-05-05T04:15:32.632Z,547.00
2023-05-05T04:16:32.766Z,541.00
2023-05-05T04:17:32.742Z,539.00
2023-05-05T04:18:32.847Z,539.00
2023-05-05T04:19:32.762Z,544.00
2023-05-05T04:20:32.791Z,540.00
2023-05-05T04:21:32.831Z,542.00
2023-05-05T04:22:32.871Z,539.00
2023-05-05T04:23:32.906Z,541.00
2023-05-05T04:24:32.942Z,534.00
2023-05-05T04:25:32.973Z,538.00
2023-05-05T04:26:32.999Z,535.00
2023-05-05T04:27:33.034Z,541.00
2023-05-05T04:28:33.062Z,537.00
2023-05-05T04:29:33.102Z,538.00
2023-05-05T04:30:33.146Z,538.00
2023-05-05T04:31:33.222Z,533.00
2023-05-05T04:32:33.240Z,529.00
2023-05-05T04:33:33.217Z,537.00
2023-05-05T04:34:33.264Z,540.00
2023-05-05T04:35:33.304Z,536.00
2023-05-05T04:36:33.346Z,539.00
2023-05-05T04:37:33.357Z,537.00
2023-05-05T04:38:33.441Z,532.00
2023-05-05T04:39:33.428Z,535.00
2023-05-05T04:40:33.550Z,539.00
2023-05-05T04:41:33.541Z,535.00
2023-05-05T04:42:33.547Z,537.00
2023-05-05T04:43:33.575Z,534.00
2023-05-05T04:44:33.655Z,531.00
2023-05-05T04:45:33.677Z,537.00
2023-05-05T04:46:33.980Z,536.00
2023-05-05T04:47:33.724Z,532.00
2023-05-05T04:48:33.765Z,534.00
2023-05-05T04:49:33.812Z,535.00
2023-05-05T04:50:33.848Z,531.00
2023-05-05T04:51:33.863Z,540.00
2023-05-05T04:52:33.906Z,538.00
2023-05-05T04:53:33.949Z,536.00
2023-05-05T04:54:33.978Z,534.00
2023-05-05T04:55:34.046Z,535.00
2023-05-05T04:56:34.037Z,533.00
2023-05-05T04:57:34.088Z,534.00
2023-05-05T04:58:34.102Z,535.00
2023-05-05T04:59:34.147Z,533.00
2023-05-05T05:00:34.184Z,531.00
2023-05-05T05:01:36.232Z,533.00
2023-05-05T05:02:34.266Z,532.00
2023-05-05T05:03:34.314Z,532.00
2023-05-05T05:04:34.200Z,535.00
2023-05-05T05:05:34.198Z,531.00
2023-05-05T05:06:34.203Z,531.00
2023-05-05T05:07:34.190Z,528.00
2023-05-05T05:08:34.189Z,535.00
2023-05-05T05:09:34.177Z,531.00
2023-05-05T05:10:34.162Z,532.00
2023-05-05T05:11:34.155Z,526.00
2023-05-05T05:12:34.161Z,533.00
2023-05-05T05:13:34.146Z,527.00
2023-05-05T05:14:34.134Z,529.00
2023-05-05T05:15:34.133Z,526.00
2023-05-05T05:16:34.191Z,530.00
2023-05-05T05:17:34.145Z,531.00
2023-05-05T05:18:34.124Z,532.00
2023-05-05T05:19:34.087Z,527.00
2023-05-05T05:20:34.089Z,527.00
2023-05-05T05:21:34.101Z,526.00
2023-05-05T05:22:34.124Z,530.00
2023-05-05T05:23:34.956Z,536.00
2023-05-05T05:24:34.067Z,526.00
2023-05-05T05:25:34.086Z,528.00
2023-05-05T05:26:34.065Z,524.00
2023-05-05T05:27:34.038Z,528.00
2023-05-05T05:28:34.059Z,522.00
2023-05-05T05:29:34.018Z,528.00
2023-05-05T05:30:34.025Z,528.00
2023-05-05T05:31:34.076Z,526.00
2023-05-05T05:32:34.038Z,527.00
2023-05-05T05:33:34.003Z,528.00
2023-05-05T05:34:34.029Z,528.00
2023-05-05T05:35:34.007Z,528.00
2023-05-05T05:36:34.009Z,522.00
2023-05-05T05:37:33.963Z,526.00
2023-05-05T05:38:33.970Z,529.00
2023-05-05T05:39:34.027Z,532.00
2023-05-05T05:40:33.971Z,529.00
2023-05-05T05:41:33.955Z,523.00
2023-05-05T05:42:33.943Z,527.00
2023-05-05T05:43:33.949Z,522.00
2023-05-05T05:44:34.025Z,524.00
2023-05-05T05:45:33.922Z,527.00
2023-05-05T05:46:33.997Z,526.00
2023-05-05T05:47:33.949Z,521.00
2023-05-05T05:48:33.919Z,528.00
2023-05-05T05:49:33.898Z,526.00
2023-05-05T05:50:33.889Z,525.00
2023-05-05T05:51:33.919Z,530.00
2023-05-05T05:52:33.917Z,524.00
2023-05-05T05:53:33.955Z,529.00
2023-05-05T05:54:33.978Z,529.00
2023-05-05T05:55:34.003Z,533.00
2023-05-05T05:56:34.025Z,531.00
2023-05-05T05:57:34.051Z,526.00
2023-05-05T05:58:34.052Z,520.00
2023-05-05T05:59:34.121Z,527.00
2023-05-05T06:00:34.202Z,529.00
2023-05-05T06:01:34.150Z,529.00
2023-05-05T06:02:34.258Z,533.00
2023-05-05T06:03:34.395Z,524.00
2023-05-05T06:04:34.333Z,535.00
2023-05-05T06:05:34.313Z,528.00
2023-05-05T06:06:34.300Z,525.00
2023-05-05T06:07:34.316Z,534.00
2023-05-05T06:08:34.339Z,535.00
2023-05-05T06:09:34.372Z,532.00
2023-05-05T06:10:34.691Z,532.00
2023-05-05T06:11:34.403Z,530.00
2023-05-05T06:12:34.440Z,531.00
2023-05-05T06:13:34.498Z,535.00
2023-05-05T06:14:34.526Z,537.00
2023-05-05T06:15:34.558Z,527.00
2023-05-05T06:16:34.565Z,540.00
2023-05-05T06:17:34.614Z,531.00
2023-05-05T06:18:34.628Z,533.00
2023-05-05T06:19:34.647Z,532.00
2023-05-05T06:20:34.699Z,538.00
2023-05-05T06:21:34.710Z,531.00
2023-05-05T06:22:34.756Z,531.00
2023-05-05T06:23:34.773Z,538.00
2023-05-05T06:24:34.794Z,534.00
2023-05-05T06:25:34.865Z,533.00
2023-05-05T06:26:34.976Z,531.00
2023-05-05T06:27:34.881Z,526.00
2023-05-05T06:28:34.880Z,541.00
2023-05-05T06:29:34.946Z,531.00
2023-05-05T06:30:34.960Z,531.00
2023-05-05T06:31:34.992Z,531.00
2023-05-05T06:32:35.047Z,540.00
2023-05-05T06:33:35.037Z,538.00
2023-05-05T06:34:35.044Z,533.00
2023-05-05T06:35:35.061Z,540.00
2023-05-05T06:36:35.121Z,539.00
2023-05-05T06:37:35.148Z,537.00
2023-05-05T06:38:35.167Z,536.00
2023-05-05T06:39:35.174Z,534.00
2023-05-05T06:40:35.237Z,538.00
2023-05-05T06:41:35.233Z,540.00
2023-05-05T06:42:35.242Z,542.00
2023-05-05T06:43:35.275Z,541.00
2023-05-05T06:44:35.286Z,539.00
2023-05-05T06:45:35.306Z,534.00
2023-05-05T06:46:35.611Z,536.00
2023-05-05T06:47:35.388Z,547.00
2023-05-05T06:48:35.420Z,545.00
2023-05-05T06:49:35.422Z,546.00
2023-05-05T06:50:35.457Z,541.00
2023-05-05T06:51:35.467Z,544.00
2023-05-05T06:52:35.508Z,535.00
2023-05-05T06:53:35.566Z,535.00
2023-05-05T06:54:35.527Z,533.00
2023-05-05T06:55:35.578Z,539.00
2023-05-05T06:56:35.592Z,538.00
2023-05-05T06:57:35.620Z,536.00
2023-05-05T06:58:35.642Z,543.00
2023-05-05T06:59:35.655Z,542.00
2023-05-05T07:00:35.741Z,541.00
2023-05-05T07:01:35.743Z,543.00
2023-05-05T07:02:35.747Z,547.00
2023-05-05T07:03:35.838Z,539.00
2023-05-05T07:04:35.811Z,543.00
2023-05-05T07:05:35.818Z,541.00
2023-05-05T07:06:36.008Z,545.00
2023-05-05T07:07:35.857Z,548.00
2023-05-05T07:08:35.896Z,551.00
2023-05-05T07:09:35.952Z,548.00
2023-05-05T07:10:35.948Z,546.00
2023-05-05T07:11:35.941Z,551.00
2023-05-05T07:12:36.006Z,547.00
2023-05-05T07:13:36.002Z,542.00
2023-05-05T07:14:36.094Z,549.00
2023-05-05T07:15:36.048Z,549.00
2023-05-05T07:16:36.096Z,553.00
2023-05-05T07:17:36.138Z,551.00
2023-05-05T07:18:36.127Z,547.00
2023-05-05T07:19:36.186Z,548.00
2023-05-05T07:20:36.209Z,545.00
2023-05-05T07:21:36.207Z,549.00
2023-05-05T07:22:36.217Z,544.00
2023-05-05T07:23:36.385Z,549.00
2023-05-05T07:24:36.294Z,548.00
2023-05-05T07:25:36.340Z,544.00
2023-05-05T07:26:36.326Z,545.00
2023-05-05T07:27:36.364Z,543.00
2023-05-05T07:28:36.373Z,541.00
2023-05-05T07:29:36.400Z,545.00
2023-05-05T07:30:36.499Z,547.00
2023-05-05T07:31:36.470Z,548.00
2023-05-05T07:32:36.497Z,538.00
2023-05-05T07:33:36.524Z,543.00
2023-05-05T07:34:39.528Z,547.00
2023-05-05T07:35:36.542Z,553.00
2023-05-05T07:36:36.541Z,546.00
2023-05-05T07:37:36.509Z,551.00
2023-05-05T07:38:36.532Z,545.00
2023-05-05T07:39:36.491Z,543.00
2023-05-05T07:40:36.472Z,543.00
2023-05-05T07:41:36.479Z,545.00
2023-05-05T07:42:36.540Z,548.00
2023-05-05T07:43:36.756Z,538.00
2023-05-05T07:44:36.458Z,547.00
2023-05-05T07:45:36.461Z,550.00
2023-05-05T07:46:36.803Z,541.00
2023-05-05T07:47:36.511Z,545.00
2023-05-05T07:48:36.449Z,546.00
2023-05-05T07:49:36.435Z,544.00
2023-05-05T07:50:36.452Z,548.00
2023-05-05T07:51:36.420Z,553.00
2023-05-05T07:52:46.492Z,535.00
2023-05-05T07:53:37.398Z,535.00
2023-05-05T07:54:36.425Z,537.00
2023-05-05T07:55:36.393Z,539.00
2023-05-05T07:56:36.389Z,543.00
2023-05-05T07:57:36.399Z,549.00
2023-05-05T07:58:36.400Z,549.00
2023-05-05T07:59:36.367Z,546.00
2023-05-05T08:00:36.353Z,550.00
2023-05-05T08:01:36.353Z,547.00
2023-05-05T08:02:36.711Z,549.00
2023-05-05T08:03:36.522Z,547.00
2023-05-05T08:04:36.372Z,547.00
2023-05-05T08:05:36.362Z,549.00
2023-05-05T08:06:36.307Z,553.00
2023-05-05T08:07:36.328Z,552.00
2023-05-05T08:08:36.309Z,549.00
2023-05-05T08:09:36.308Z,553.00
2023-05-05T08:10:36.341Z,554.00
2023-05-05T08:11:36.293Z,552.00
2023-05-05T08:12:36.345Z,551.00
2023-05-05T08:13:36.295Z,555.00
2023-05-05T08:14:36.274Z,552.00
2023-05-05T08:15:36.251Z,554.00
2023-05-05T08:16:36.497Z,554.00
2023-05-05T08:17:36.399Z,558.00
2023-05-05T08:18:36.472Z,552.00
2023-05-05T08:19:36.352Z,556.00
2023-05-05T08:20:36.396Z,555.00
2023-05-05T08:21:36.444Z,557.00
2023-05-05T08:22:36.431Z,555.00
2023-05-05T08:23:36.443Z,561.00
2023-05-05T08:24:36.488Z,561.00
2023-05-05T08:25:36.514Z,561.00
2023-05-05T08:26:36.514Z,558.00
2023-05-05T08:27:36.562Z,555.00
2023-05-05T08:28:36.562Z,555.00
2023-05-05T08:29:36.562Z,558.00
2023-05-05T08:30:36.597Z,558.00
2023-05-05T08:31:36.670Z,564.00
2023-05-05T08:32:36.652Z,564.00
2023-05-05T08:33:36.649Z,565.00
2023-05-05T08:34:36.731Z,562.00
2023-05-05T08:35:36.663Z,566.00
2023-05-05T08:36:36.730Z,566.00
2023-05-05T08:37:37.058Z,566.00
2023-05-05T08:38:36.759Z,563.00
2023-05-05T08:39:36.781Z,563.00
2023-05-05T08:40:36.749Z,570.00
2023-05-05T08:41:36.807Z,567.00
2023-05-05T08:42:38.505Z,567.00
2023-05-05T08:43:36.853Z,563.00
2023-05-05T08:44:36.893Z,566.00
2023-05-05T08:45:36.891Z,567.00
2023-05-05T08:46:36.938Z,576.00
2023-05-05T08:47:37.022Z,579.00
2023-05-05T08:48:36.975Z,599.00
2023-05-05T08:49:36.994Z,619.00
2023-05-05T08:50:37.080Z,623.00
2023-05-05T08:51:37.045Z,629.00
2023-05-05T08:52:37.584Z,643.00
2023-05-05T08:53:37.112Z,661.00
2023-05-05T08:54:37.103Z,670.00
2023-05-05T08:55:37.107Z,689.00
2023-05-05T08:56:37.137Z,720.00
2023-05-05T08:57:37.178Z,712.00
2023-05-05T08:58:37.150Z,712.00
2023-05-05T08:59:37.186Z,715.00
2023-05-05T09:00:37.212Z,707.00
2023-05-05T09:01:37.348Z,700.00
2023-05-05T09:02:37.307Z,682.00
2023-05-05T09:03:37.282Z,667.00
2023-05-05T09:04:37.297Z,657.00
2023-05-05T09:05:37.309Z,657.00
2023-05-05T09:06:37.512Z,646.00
2023-05-05T09:07:37.545Z,646.00
2023-05-05T09:08:37.348Z,635.00
2023-05-05T09:09:37.404Z,627.00
2023-05-05T09:10:37.416Z,615.00
2023-05-05T09:11:37.454Z,616.00
2023-05-05T09:12:37.471Z,609.00
2023-05-05T09:13:37.487Z,605.00
2023-05-05T09:14:37.491Z,598.00
2023-05-05T09:15:37.500Z,589.00
2023-05-05T09:16:37.641Z,583.00
2023-05-05T09:17:37.671Z,573.00
2023-05-05T09:18:37.573Z,562.00
2023-05-05T09:19:37.616Z,565.00
2023-05-05T09:20:37.612Z,552.00
2023-05-05T09:21:37.644Z,547.00
2023-05-05T09:22:38.034Z,541.00
2023-05-05T09:23:37.646Z,540.00
2023-05-05T09:24:37.640Z,522.00
2023-05-05T09:25:37.788Z,527.00
2023-05-05T09:26:37.809Z,528.00
2023-05-05T09:27:38.040Z,528.00
2023-05-05T09:28:37.700Z,524.00
2023-05-05T09:29:37.735Z,521.00
2023-05-05T09:30:37.798Z,516.00
2023-05-05T09:31:37.800Z,517.00
2023-05-05T09:32:37.822Z,512.00
2023-05-05T09:33:37.794Z,518.00
2023-05-05T09:34:37.845Z,524.00
2023-05-05T09:35:37.856Z,524.00
2023-05-05T09:36:38.560Z,534.00
2023-05-05T09:37:37.864Z,538.00
2023-05-05T09:38:37.961Z,534.00
2023-05-05T09:39:37.907Z,523.00
2023-05-05T09:40:37.902Z,530.00
2023-05-05T09:41:37.947Z,526.00
2023-05-05T09:42:38.069Z,527.00
2023-05-05T09:43:37.975Z,533.00
2023-05-05T09:44:38.002Z,540.00
2023-05-05T09:45:38.019Z,551.00
2023-05-05T09:46:38.054Z,555.00
2023-05-05T09:47:38.140Z,555.00
2023-05-05T09:48:38.072Z,557.00
2023-05-05T09:49:38.109Z,566.00
2023-05-05T09:50:38.147Z,569.00
2023-05-05T09:51:38.150Z,572.00
2023-05-05T09:52:38.179Z,569.00
2023-05-05T09:53:38.169Z,574.00
2023-05-05T09:54:38.265Z,584.00
2023-05-05T09:55:38.218Z,576.00
2023-05-05T09:56:38.240Z,584.00
2023-05-05T09:57:38.548Z,585.00
2023-05-05T09:58:38.319Z,586.00
2023-05-05T09:59:38.290Z,596.00
2023-05-05T10:00:38.306Z,599.00
2023-05-05T10:01:38.449Z,598.00
2023-05-05T10:02:38.739Z,610.00
2023-05-05T10:03:38.321Z,608.00
2023-05-05T10:04:38.368Z,613.00
2023-05-05T10:05:38.362Z,614.00
2023-05-05T10:06:38.355Z,615.00
2023-05-05T10:07:38.395Z,618.00
2023-05-05T10:08:38.402Z,622.00
2023-05-05T10:09:38.407Z,623.00
2023-05-05T10:10:38.507Z,619.00
2023-05-05T10:11:38.591Z,616.00
2023-05-05T10:12:38.517Z,619.00
2023-05-05T10:13:38.474Z,622.00
2023-05-05T10:14:38.476Z,623.00
2023-05-05T10:15:38.507Z,628.00
2023-05-05T10:16:38.575Z,629.00
2023-05-05T10:17:38.619Z,626.00
2023-05-05T10:18:38.629Z,632.00
2023-05-05T10:19:38.523Z,638.00
2023-05-05T10:20:38.647Z,633.00
2023-05-05T10:21:39.320Z,637.00
2023-05-05T10:22:38.579Z,639.00
2023-05-05T10:23:38.525Z,633.00
2023-05-05T10:24:38.520Z,637.00
2023-05-05T10:25:38.589Z,632.00
2023-05-05T10:26:38.625Z,634.00
2023-05-05T10:27:38.534Z,635.00
2023-05-05T10:28:38.527Z,638.00
2023-05-05T10:29:38.541Z,638.00
2023-05-05T10:30:38.496Z,638.00
2023-05-05T10:31:38.506Z,634.00
2023-05-05T10:33:38.751Z,640.00
2023-05-05T10:34:38.562Z,642.00
2023-05-05T10:35:38.485Z,643.00
2023-05-05T10:36:38.462Z,644.00
2023-05-05T10:37:39.101Z,645.00
2023-05-05T10:38:38.448Z,639.00
2023-05-05T10:39:38.452Z,636.00
2023-05-05T10:40:38.415Z,642.00
2023-05-05T10:41:38.435Z,642.00
2023-05-05T10:42:38.586Z,644.00
2023-05-05T10:43:38.443Z,652.00
2023-05-05T10:44:38.428Z,643.00
2023-05-05T10:45:38.538Z,656.00
2023-05-05T10:46:38.474Z,653.00
2023-05-05T10:47:38.438Z,648.00
2023-05-05T10:48:38.443Z,650.00
2023-05-05T10:49:38.398Z,654.00
2023-05-05T10:50:38.381Z,656.00
2023-05-05T10:51:41.013Z,656.00
2023-05-05T10:52:38.335Z,656.00
2023-05-05T10:53:38.360Z,657.00
2023-05-05T10:54:38.636Z,657.00
2023-05-05T10:55:38.356Z,659.00
2023-05-05T10:56:38.341Z,665.00
2023-05-05T10:57:38.316Z,667.00
2023-05-05T10:58:51.077Z,661.00
2023-05-05T10:59:39.333Z,662.00
2023-05-05T11:00:38.306Z,664.00
2023-05-05T11:01:38.348Z,668.00
2023-05-05T11:02:38.304Z,668.00
2023-05-05T11:03:38.317Z,672.00
2023-05-05T11:04:38.286Z,677.00
2023-05-05T11:05:38.280Z,680.00
2023-05-05T11:06:38.290Z,678.00
2023-05-05T11:07:38.271Z,672.00
2023-05-05T11:08:38.253Z,668.00
2023-05-05T11:09:38.265Z,681.00
2023-05-05T11:10:38.239Z,666.00
2023-05-05T11:11:38.231Z,667.00
2023-05-05T11:12:38.911Z,661.00
2023-05-05T11:13:38.203Z,668.00
2023-05-05T11:14:38.279Z,667.00
2023-05-05T11:15:38.259Z,667.00
2023-05-05T11:16:38.236Z,667.00
2023-05-05T11:17:38.233Z,671.00
2023-05-05T11:18:38.229Z,665.00
2023-05-05T11:19:38.188Z,679.00
2023-05-05T11:20:38.176Z,672.00
2023-05-05T11:21:38.174Z,680.00
2023-05-05T11:22:38.212Z,674.00
2023-05-05T11:23:38.195Z,679.00
2023-05-05T11:24:38.131Z,673.00
2023-05-05T11:25:38.392Z,676.00
2023-05-05T11:26:38.160Z,684.00
2023-05-05T11:27:38.156Z,676.00
2023-05-05T11:28:38.604Z,678.00
2023-05-05T11:29:38.117Z,678.00
2023-05-05T11:30:38.185Z,686.00
2023-05-05T11:31:38.206Z,669.00
2023-05-05T11:32:38.209Z,679.00
2023-05-05T11:33:38.140Z,667.00
2023-05-05T11:34:38.082Z,663.00
2023-05-05T11:35:38.056Z,660.00
2023-05-05T11:36:38.059Z,663.00
2023-05-05T11:37:38.069Z,661.00
2023-05-05T11:38:38.079Z,688.00
2023-05-05T11:39:38.062Z,688.00
2023-05-05T11:40:38.055Z,684.00
2023-05-05T11:41:38.056Z,687.00
2023-05-05T11:42:38.031Z,692.00
2023-05-05T11:43:38.075Z,742.00
2023-05-05T11:44:38.056Z,763.00
2023-05-05T11:45:38.055Z,776.00
2023-05-05T11:46:38.142Z,790.00
2023-05-05T11:47:38.080Z,805.00
2023-05-05T11:48:38.050Z,805.00
2023-05-05T11:49:38.095Z,819.00
2023-05-05T11:50:38.078Z,827.00
2023-05-05T11:51:38.068Z,837.00
2023-05-05T11:52:38.185Z,840.00
2023-05-05T11:53:38.208Z,857.00
2023-05-05T11:54:38.248Z,880.00
2023-05-05T11:55:38.339Z,869.00
2023-05-05T11:56:38.412Z,869.00
2023-05-05T11:57:38.425Z,858.00
2023-05-05T11:58:38.478Z,867.00
2023-05-05T11:59:38.567Z,877.00
2023-05-05T12:00:38.584Z,870.00
2023-05-05T12:01:38.628Z,872.00
2023-05-05T12:02:38.708Z,884.00
2023-05-05T12:03:38.872Z,871.00
2023-05-05T12:04:38.812Z,898.00
2023-05-05T12:05:38.784Z,884.00
2023-05-05T12:06:38.847Z,870.00
2023-05-05T12:07:38.898Z,884.00
2023-05-05T12:08:38.920Z,885.00
2023-05-05T12:09:39.009Z,894.00
2023-05-05T12:10:39.070Z,877.00
2023-05-05T12:11:39.124Z,907.00
2023-05-05T12:12:39.213Z,903.00
2023-05-05T12:13:39.275Z,899.00
2023-05-05T12:14:39.312Z,901.00
2023-05-05T12:15:39.361Z,891.00
2023-05-05T12:16:39.534Z,890.00
2023-05-05T12:17:39.552Z,884.00
2023-05-05T12:18:39.641Z,891.00
2023-05-05T12:19:39.643Z,888.00
2023-05-05T12:20:39.697Z,888.00
2023-05-05T12:21:39.825Z,898.00
2023-05-05T12:22:39.820Z,877.00
2023-05-05T12:23:39.893Z,875.00
2023-05-05T12:24:39.930Z,894.00
2023-05-05T12:25:40.009Z,881.00
2023-05-05T12:26:40.145Z,888.00
2023-05-05T12:27:40.128Z,867.00
2023-05-05T12:28:40.187Z,882.00
2023-05-05T12:29:40.268Z,897.00